createdAt,value
2022-09-01T00:00:18.720Z,16.82
2022-09-01T00:02:52.313Z,16.83
2022-09-01T00:05:19.132Z,16.84
2022-09-01T00:07:52.287Z,16.85
2022-09-01T00:10:19.102Z,16.81
2022-09-01T00:12:52.279Z,16.82
2022-09-01T00:15:19.000Z,16.86
2022-09-01T00:17:52.283Z,16.82
2022-09-01T00:20:25.272Z,16.79
2022-09-01T00:22:58.256Z,16.80
2022-09-01T00:25:45.256Z,16.76
2022-09-01T00:28:12.034Z,16.76
2022-09-01T00:30:45.313Z,16.73
2022-09-01T00:33:18.258Z,16.67
2022-09-01T00:35:52.257Z,16.66
2022-09-01T00:38:25.284Z,16.64
2022-09-01T00:40:52.778Z,16.63
2022-09-01T00:43:54.282Z,16.59
2022-09-01T00:46:31.298Z,16.57
2022-09-01T00:49:21.238Z,16.60
2022-09-01T00:52:00.290Z,16.61
2022-09-01T00:54:32.137Z,16.61
2022-09-01T00:57:06.263Z,16.64
2022-09-01T00:59:33.176Z,16.64
2022-09-01T01:02:06.308Z,16.67
2022-09-01T01:04:33.068Z,16.66
2022-09-01T01:07:10.291Z,16.69
2022-09-01T01:09:44.844Z,16.66
2022-09-01T01:12:20.256Z,16.60
2022-09-01T01:14:50.463Z,16.59
2022-09-01T01:17:25.251Z,16.63
2022-09-01T01:20:14.128Z,16.69
2022-09-01T01:23:08.261Z,16.68
2022-09-01T01:26:01.279Z,16.63
2022-09-01T01:28:45.264Z,16.58
2022-09-01T01:31:18.493Z,16.55
2022-09-01T01:33:59.249Z,16.55
2022-09-01T01:36:40.249Z,16.60
2022-09-01T01:39:16.241Z,16.61
2022-09-01T01:41:55.273Z,16.63
2022-09-01T01:44:28.341Z,16.64
2022-09-01T01:47:04.243Z,16.61
2022-09-01T01:49:31.159Z,16.60
2022-09-01T01:52:06.236Z,16.59
2022-09-01T01:54:42.314Z,16.55
2022-09-01T01:57:15.233Z,16.55
2022-09-01T01:59:48.228Z,16.54
2022-09-01T02:02:14.985Z,16.56
2022-09-01T02:04:50.241Z,16.55
2022-09-01T02:07:18.051Z,16.53
2022-09-01T02:09:54.239Z,16.55
2022-09-01T02:12:23.314Z,16.56
2022-09-01T02:14:56.399Z,16.53
2022-09-01T02:17:23.383Z,16.55
2022-09-01T02:19:56.246Z,16.55
2022-09-01T02:22:22.929Z,16.54
2022-09-01T02:24:56.268Z,16.57
2022-09-01T02:27:36.240Z,16.60
2022-09-01T02:30:19.230Z,16.58
2022-09-01T02:32:45.912Z,16.61
2022-09-01T02:35:20.244Z,16.63
2022-09-01T02:37:56.220Z,16.61
2022-09-01T02:40:29.268Z,16.57
2022-09-01T02:43:07.240Z,16.53
2022-09-01T02:45:41.256Z,16.54
2022-09-01T02:48:16.288Z,16.50
2022-09-01T02:50:52.228Z,16.38
2022-09-01T02:53:20.635Z,16.33
2022-09-01T02:55:47.250Z,16.31
2022-09-01T02:58:25.213Z,16.30
2022-09-01T03:00:54.658Z,16.32
2022-09-01T03:03:28.220Z,16.29
2022-09-01T03:05:55.645Z,16.27
2022-09-01T03:08:31.249Z,16.28
2022-09-01T03:11:01.502Z,16.27
2022-09-01T03:13:35.241Z,16.20
2022-09-01T03:16:02.064Z,16.25
2022-09-01T03:18:35.214Z,16.25
2022-09-01T03:21:02.658Z,16.23
2022-09-01T03:23:41.219Z,16.19
2022-09-01T03:26:18.719Z,16.19
2022-09-01T03:28:52.222Z,16.16
2022-09-01T03:31:20.492Z,16.10
2022-09-01T03:33:54.226Z,16.11
2022-09-01T03:36:20.920Z,16.10
2022-09-01T03:38:56.236Z,16.07
2022-09-01T03:41:28.454Z,16.02
2022-09-01T03:44:04.247Z,16.03
2022-09-01T03:46:38.225Z,16.00
2022-09-01T03:49:07.529Z,16.01
2022-09-01T03:51:42.236Z,16.01
2022-09-01T03:54:09.408Z,15.98
2022-09-01T03:56:42.209Z,15.94
2022-09-01T03:59:23.232Z,15.91
2022-09-01T04:01:49.879Z,15.90
2022-09-01T04:04:23.194Z,15.92
2022-09-01T04:06:49.817Z,15.94
2022-09-01T04:09:23.217Z,15.89
2022-09-01T04:11:57.226Z,15.85
2022-09-01T04:14:32.209Z,15.85
2022-09-01T04:17:17.379Z,15.81
2022-09-01T04:19:50.212Z,15.75
2022-09-01T04:22:17.691Z,15.73
2022-09-01T04:24:52.248Z,15.74
2022-09-01T04:27:27.042Z,15.68
2022-09-01T04:30:08.194Z,15.68
2022-09-01T04:32:35.784Z,15.66
2022-09-01T04:35:09.216Z,15.64
2022-09-01T04:37:36.576Z,15.59
2022-09-01T04:40:11.276Z,15.59
2022-09-01T04:42:37.952Z,15.60
2022-09-01T04:45:15.403Z,15.63
2022-09-01T04:47:45.496Z,15.65
2022-09-01T04:50:24.224Z,15.60
2022-09-01T04:52:51.185Z,15.62
2022-09-01T04:55:24.202Z,15.64
2022-09-01T04:57:57.214Z,15.66
2022-09-01T05:00:26.937Z,15.69
2022-09-01T05:03:12.202Z,15.71
2022-09-01T05:05:51.225Z,15.71
2022-09-01T05:08:23.554Z,15.69
2022-09-01T05:11:02.236Z,15.73
2022-09-01T05:13:29.871Z,15.77
2022-09-01T05:16:09.217Z,15.74
2022-09-01T05:18:36.124Z,15.72
2022-09-01T05:21:17.217Z,15.73
2022-09-01T05:23:44.972Z,15.72
2022-09-01T05:26:38.190Z,15.76
2022-09-01T05:29:13.397Z,15.75
2022-09-01T05:31:50.373Z,15.79
2022-09-01T05:34:23.101Z,15.79
2022-09-01T05:36:57.241Z,15.79
2022-09-01T05:39:25.816Z,15.83
2022-09-01T05:42:00.213Z,15.84
2022-09-01T05:44:33.206Z,15.85
2022-09-01T05:47:06.203Z,15.88
2022-09-01T05:49:40.224Z,15.88
2022-09-01T05:52:16.184Z,15.89
2022-09-01T05:54:42.928Z,15.93
2022-09-01T05:57:33.841Z,15.98
2022-09-01T06:00:17.238Z,16.02
2022-09-01T06:02:45.287Z,16.03
2022-09-01T06:05:20.218Z,15.99
2022-09-01T06:07:47.217Z,15.93
2022-09-01T06:10:21.309Z,15.90
2022-09-01T06:12:50.505Z,16.00
2022-09-01T06:15:27.203Z,16.05
2022-09-01T06:17:54.641Z,16.10
2022-09-01T06:20:23.005Z,16.13
2022-09-01T06:22:56.200Z,16.17
2022-09-01T06:25:30.196Z,16.20
2022-09-01T06:28:18.224Z,16.26
2022-09-01T06:30:52.257Z,16.30
2022-09-01T06:33:19.469Z,16.35
2022-09-01T06:35:54.194Z,16.39
2022-09-01T06:38:21.061Z,16.31
2022-09-01T06:40:55.256Z,16.40
2022-09-01T06:43:29.200Z,16.48
2022-09-01T06:45:55.940Z,16.60
2022-09-01T06:48:30.295Z,16.66
2022-09-01T06:51:20.968Z,16.69
2022-09-01T06:54:03.248Z,16.78
2022-09-01T06:56:44.944Z,16.81
2022-09-01T06:59:25.193Z,16.94
2022-09-01T07:02:01.355Z,16.97
2022-09-01T07:04:37.181Z,16.76
2022-09-01T07:13:05.998Z,16.88
2022-09-01T07:16:32.053Z,16.83
2022-09-01T07:18:34.187Z,16.87
2022-09-01T07:21:36.115Z,16.93
2022-09-01T07:27:07.686Z,17.01
2022-09-01T07:29:41.769Z,17.06
2022-09-01T07:35:14.210Z,17.20
2022-09-01T07:42:30.447Z,16.95
2022-09-01T07:42:59.050Z,17.21
2022-09-01T07:43:34.189Z,17.24
2022-09-01T07:49:29.515Z,17.39
2022-09-01T07:51:51.363Z,17.44
2022-09-01T07:54:24.245Z,17.41
2022-09-01T07:56:50.845Z,17.49
2022-09-01T07:59:25.189Z,17.58
2022-09-01T08:01:52.459Z,17.67
2022-09-01T08:04:29.186Z,17.66
2022-09-01T08:06:56.622Z,17.65
2022-09-01T08:09:37.431Z,17.71
2022-09-01T08:12:06.012Z,17.77
2022-09-01T08:14:41.188Z,17.87
2022-09-01T08:17:18.267Z,17.89
2022-09-01T08:20:08.216Z,17.96
2022-09-01T08:22:38.205Z,17.96
2022-09-01T08:25:16.352Z,17.98
2022-09-01T08:28:02.916Z,17.99
2022-09-01T08:30:32.546Z,18.04
2022-09-01T08:33:10.773Z,18.09
2022-09-01T08:35:55.156Z,18.09
2022-09-01T08:38:21.913Z,18.22
2022-09-01T08:41:04.266Z,18.28
2022-09-01T08:43:34.212Z,18.30
2022-09-01T08:46:23.267Z,18.34
2022-09-01T08:49:24.761Z,18.36
2022-09-01T08:52:31.176Z,18.39
2022-09-01T08:55:18.263Z,18.44
2022-09-01T08:57:59.049Z,18.47
2022-09-01T09:00:43.166Z,18.48
2022-09-01T09:03:42.922Z,18.51
2022-09-01T09:06:22.176Z,18.58
2022-09-01T09:09:03.783Z,18.67
2022-09-01T09:11:52.195Z,18.79
2022-09-01T09:14:57.936Z,18.90
2022-09-01T09:17:41.165Z,18.92
2022-09-01T09:20:09.235Z,19.01
2022-09-01T09:22:36.188Z,19.05
2022-09-01T09:25:19.490Z,19.17
2022-09-01T09:28:06.157Z,19.28
2022-09-01T09:30:40.200Z,19.31
2022-09-01T09:33:49.778Z,19.32
2022-09-01T09:36:38.154Z,19.32
2022-09-01T09:39:23.178Z,19.34
2022-09-01T09:42:19.623Z,19.39
2022-09-01T09:44:59.173Z,19.42
2022-09-01T09:47:49.569Z,19.46
2022-09-01T09:50:31.349Z,19.59
2022-09-01T09:53:23.169Z,19.74
2022-09-01T09:56:18.115Z,19.79
2022-09-01T09:58:54.162Z,19.85
2022-09-01T10:01:24.524Z,19.93
2022-09-01T10:04:01.201Z,20.02
2022-09-01T10:06:45.162Z,20.01
2022-09-01T10:09:22.969Z,20.26
2022-09-01T10:11:59.144Z,20.44
2022-09-01T10:14:52.132Z,20.41
2022-09-01T10:18:19.665Z,20.53
2022-09-01T10:20:48.952Z,20.50
2022-09-01T10:23:23.175Z,20.48
2022-09-01T10:25:51.223Z,20.40
2022-09-01T10:28:32.147Z,20.30
2022-09-01T10:30:59.770Z,20.26
2022-09-01T10:33:33.191Z,20.20
2022-09-01T10:36:00.573Z,20.14
2022-09-01T10:38:36.142Z,20.02
2022-09-01T10:41:10.089Z,19.98
2022-09-01T10:43:59.667Z,19.93
2022-09-01T10:46:38.628Z,19.88
2022-09-01T10:49:27.731Z,19.86
2022-09-01T10:52:11.363Z,19.86
2022-09-01T10:54:55.829Z,19.76
2022-09-01T10:57:51.187Z,19.72
2022-09-01T11:01:10.458Z,19.73
2022-09-01T11:06:14.166Z,19.78
2022-09-01T11:08:50.740Z,19.80
2022-09-01T11:11:42.207Z,19.85
2022-09-01T11:14:19.968Z,19.91
2022-09-01T11:17:32.234Z,19.90
2022-09-01T11:20:22.298Z,19.99
2022-09-01T11:23:18.161Z,20.10
2022-09-01T11:26:30.213Z,20.18
2022-09-01T11:29:03.327Z,20.22
2022-09-01T11:31:50.206Z,20.21
2022-09-01T11:34:20.165Z,20.27
2022-09-01T11:36:59.141Z,20.41
2022-09-01T11:39:50.208Z,20.67
2022-09-01T11:42:28.138Z,20.88
2022-09-01T11:45:03.412Z,20.88
2022-09-01T11:47:51.199Z,20.88
2022-09-01T11:50:32.206Z,20.84
2022-09-01T11:53:14.118Z,20.83
2022-09-01T11:55:49.196Z,20.72
2022-09-01T11:58:34.139Z,20.68
2022-09-01T12:01:24.158Z,20.61
2022-09-01T12:03:52.904Z,20.55
2022-09-01T12:06:33.161Z,20.49
2022-09-01T12:09:04.148Z,20.44
2022-09-01T12:11:41.184Z,20.39
2022-09-01T12:14:12.005Z,20.35
2022-09-01T12:16:49.164Z,20.29
2022-09-01T12:19:36.162Z,20.25
2022-09-01T12:22:13.634Z,20.18
2022-09-01T12:24:52.126Z,20.14
2022-09-01T12:27:26.255Z,20.17
2022-09-01T12:30:06.165Z,20.22
2022-09-01T12:32:33.540Z,20.11
2022-09-01T12:35:11.540Z,20.10
2022-09-01T12:37:45.133Z,20.09
2022-09-01T12:40:30.906Z,20.10
2022-09-01T12:43:04.138Z,20.08
2022-09-01T12:45:42.008Z,20.12
2022-09-01T12:48:44.730Z,20.06
2022-09-01T12:51:25.517Z,20.03
2022-09-01T12:54:04.904Z,19.99
2022-09-01T12:56:39.181Z,19.91
2022-09-01T12:59:23.371Z,19.90
2022-09-01T13:02:40.224Z,19.88
2022-09-01T13:05:32.693Z,19.89
2022-09-01T13:08:13.033Z,19.90
2022-09-01T13:10:50.187Z,19.85
2022-09-01T13:13:18.009Z,19.85
2022-09-01T13:15:57.220Z,19.85
2022-09-01T13:18:25.716Z,19.84
2022-09-01T13:21:00.132Z,19.84
2022-09-01T13:23:27.145Z,19.83
2022-09-01T13:26:00.144Z,19.83
2022-09-01T13:28:41.161Z,19.86
2022-09-01T13:34:20.528Z,19.85
2022-09-01T13:36:54.104Z,19.86
2022-09-01T13:39:22.727Z,19.83
2022-09-01T13:41:56.140Z,19.85
2022-09-01T13:44:29.276Z,19.84
2022-09-01T13:47:28.699Z,19.85
2022-09-01T13:50:11.964Z,19.87
2022-09-01T13:52:42.269Z,19.86
2022-09-01T13:55:19.097Z,19.86
2022-09-01T13:57:45.965Z,19.89
2022-09-01T14:00:24.122Z,19.91
2022-09-01T14:02:54.299Z,19.88
2022-09-01T14:05:37.111Z,19.89
2022-09-01T14:08:06.321Z,19.89
2022-09-01T14:10:44.124Z,19.91
2022-09-01T14:13:12.313Z,19.93
2022-09-01T14:15:46.146Z,19.93
2022-09-01T14:18:21.183Z,19.93
2022-09-01T14:20:57.104Z,19.95
2022-09-01T14:23:23.835Z,19.95
2022-09-01T14:25:58.119Z,19.96
2022-09-01T14:28:38.134Z,19.95
2022-09-01T14:31:10.045Z,19.98
2022-09-01T14:33:45.191Z,20.00
2022-09-01T14:36:22.183Z,20.00
2022-09-01T14:38:57.104Z,20.03
2022-09-01T14:41:32.139Z,20.04
2022-09-01T14:44:03.312Z,20.04
2022-09-01T14:46:41.335Z,20.03
2022-09-01T14:49:08.266Z,20.04
2022-09-01T14:54:30.356Z,20.01
2022-09-01T14:59:56.272Z,19.99
2022-09-01T15:02:32.215Z,19.99
2022-09-01T15:04:59.222Z,20.00
2022-09-01T15:07:33.093Z,19.97
2022-09-01T15:09:59.815Z,19.95
2022-09-01T15:12:37.137Z,19.97
2022-09-01T15:15:06.731Z,19.95
2022-09-01T15:17:42.263Z,19.92
2022-09-01T15:20:37.092Z,19.90
2022-09-01T15:23:04.642Z,19.89
2022-09-01T15:25:31.770Z,19.84
2022-09-01T15:28:07.150Z,19.82
2022-09-01T15:30:41.275Z,19.78
2022-09-01T15:33:16.359Z,19.77
2022-09-01T15:35:44.861Z,19.75
2022-09-01T15:38:18.381Z,19.74
2022-09-01T15:40:57.059Z,19.74
2022-09-01T15:43:33.179Z,19.74
2022-09-01T15:46:02.010Z,19.75
2022-09-01T15:48:29.601Z,19.69
2022-09-01T15:51:31.260Z,19.68
2022-09-01T15:54:10.402Z,19.66
2022-09-01T15:56:44.109Z,19.67
2022-09-01T15:59:11.641Z,19.66
2022-09-01T16:01:48.134Z,19.62
2022-09-01T16:04:27.505Z,19.62
2022-09-01T16:07:03.154Z,19.62
2022-09-01T16:09:36.107Z,19.63
2022-09-01T16:12:11.229Z,19.59
2022-09-01T16:14:37.954Z,19.59
2022-09-01T16:17:24.137Z,19.59
2022-09-01T16:20:03.569Z,19.56
2022-09-01T16:22:35.864Z,19.55
2022-09-01T16:25:24.157Z,19.52
2022-09-01T16:27:58.661Z,19.52
2022-09-01T16:30:34.777Z,19.46
2022-09-01T16:33:10.145Z,19.45
2022-09-01T16:36:10.100Z,19.44
2022-09-01T16:39:09.125Z,19.42
2022-09-01T16:41:48.753Z,19.40
2022-09-01T16:44:41.096Z,19.42
2022-09-01T16:47:25.132Z,19.41
2022-09-01T16:50:30.089Z,19.39
2022-09-01T16:53:25.517Z,19.37
2022-09-01T16:56:08.287Z,19.34
2022-09-01T16:58:35.180Z,19.31
2022-09-01T17:01:08.290Z,19.32
2022-09-01T17:04:03.114Z,19.33
2022-09-01T17:06:43.132Z,19.27
2022-09-01T17:09:20.020Z,19.24
2022-09-01T17:12:00.105Z,19.21
2022-09-01T17:14:51.123Z,19.16
2022-09-01T17:17:32.173Z,19.14
2022-09-01T17:19:59.145Z,19.08
2022-09-01T17:22:32.114Z,19.05
2022-09-01T17:28:05.103Z,19.06
2022-09-01T17:30:44.927Z,19.05
2022-09-01T17:33:57.082Z,19.03
2022-09-01T17:36:49.793Z,19.04
2022-09-01T17:39:56.090Z,19.01
2022-09-01T17:42:50.766Z,19.00
2022-09-01T17:45:38.085Z,19.00
2022-09-01T17:48:25.070Z,18.97
2022-09-01T17:51:11.989Z,18.94
2022-09-01T17:53:45.066Z,18.93
2022-09-01T17:56:36.038Z,18.90
2022-09-01T17:59:22.095Z,18.91
2022-09-01T18:02:13.070Z,18.92
2022-09-01T18:05:00.534Z,18.93
2022-09-01T18:07:40.086Z,18.89
2022-09-01T18:10:14.543Z,18.85
2022-09-01T18:12:50.074Z,18.84
2022-09-01T18:15:29.080Z,18.79
2022-09-01T18:18:19.978Z,18.78
2022-09-01T18:20:55.093Z,18.77
2022-09-01T18:23:22.099Z,18.73
2022-09-01T18:26:09.086Z,18.73
2022-09-01T18:28:42.062Z,18.74
2022-09-01T18:31:26.375Z,18.74
2022-09-01T18:34:17.070Z,18.73
2022-09-01T18:36:59.070Z,18.72
2022-09-01T18:39:41.163Z,18.73
2022-09-01T18:42:45.059Z,18.71
2022-09-01T18:45:50.047Z,18.70
2022-09-01T18:48:48.065Z,18.70
2022-09-01T18:51:31.104Z,18.67
2022-09-01T18:54:13.029Z,18.66
2022-09-01T18:57:03.208Z,18.65
2022-09-01T19:00:00.792Z,18.65
2022-09-01T19:03:03.217Z,18.61
2022-09-01T19:05:46.539Z,18.62
2022-09-01T19:08:45.055Z,18.58
2022-09-01T19:11:20.719Z,18.57
2022-09-01T19:14:19.192Z,18.55
2022-09-01T19:17:04.696Z,18.54
2022-09-01T19:19:53.062Z,18.53
2022-09-01T19:22:30.289Z,18.52
2022-09-01T19:25:28.055Z,18.53
2022-09-01T19:28:32.061Z,18.55
2022-09-01T19:31:26.989Z,18.50
2022-09-01T19:34:04.097Z,18.47
2022-09-01T19:37:02.070Z,18.48
2022-09-01T19:39:37.053Z,18.45
2022-09-01T19:42:12.784Z,18.42
2022-09-01T19:45:20.086Z,18.40
2022-09-01T19:48:08.130Z,18.34
2022-09-01T19:50:59.064Z,18.34
2022-09-01T19:53:37.519Z,18.31
2022-09-01T19:56:23.180Z,18.31
2022-09-01T19:59:24.029Z,18.36
2022-09-01T20:02:03.533Z,18.34
2022-09-01T20:04:55.669Z,18.32
2022-09-01T20:07:28.919Z,18.27
2022-09-01T20:10:27.060Z,18.26
2022-09-01T20:13:12.449Z,18.26
2022-09-01T20:15:48.116Z,18.25
2022-09-01T20:18:40.048Z,18.25
2022-09-01T20:21:18.821Z,18.23
2022-09-01T20:24:02.044Z,18.20
2022-09-01T20:26:42.191Z,18.21
2022-09-01T20:29:31.068Z,18.20
2022-09-01T20:32:12.115Z,18.16
2022-09-01T20:35:05.056Z,18.16
2022-09-01T20:37:44.054Z,18.17
2022-09-01T20:40:30.790Z,18.16
2022-09-01T20:43:11.041Z,18.13
2022-09-01T20:45:38.970Z,18.08
2022-09-01T20:48:21.048Z,18.03
2022-09-01T20:51:19.050Z,18.03
2022-09-01T20:54:22.046Z,17.99
2022-09-01T20:57:15.139Z,17.99
2022-09-01T21:00:00.017Z,17.97
2022-09-01T21:03:01.782Z,17.95
2022-09-01T21:05:50.032Z,17.92
2022-09-01T21:08:29.200Z,17.85
2022-09-01T21:11:19.046Z,17.80
2022-09-01T21:14:07.272Z,17.77
2022-09-01T21:17:19.045Z,17.81
2022-09-01T21:20:33.077Z,17.87
2022-09-01T21:23:00.449Z,17.90
2022-09-01T21:25:35.035Z,17.89
2022-09-01T21:28:13.046Z,17.88
2022-09-01T21:30:40.040Z,17.86
2022-09-01T21:33:14.230Z,17.87
2022-09-01T21:35:41.022Z,17.86
2022-09-01T21:38:15.017Z,17.83
2022-09-01T21:40:42.446Z,17.83
2022-09-01T21:43:22.152Z,17.77
2022-09-01T21:45:49.665Z,17.76
2022-09-01T21:48:23.069Z,17.76
2022-09-01T21:50:57.023Z,17.75
2022-09-01T21:53:24.471Z,17.74
2022-09-01T21:55:58.029Z,17.70
2022-09-01T21:58:31.008Z,17.72
2022-09-01T22:01:05.113Z,17.73
2022-09-01T22:03:31.873Z,17.73
2022-09-01T22:06:05.143Z,17.72
2022-09-01T22:08:32.063Z,17.73
2022-09-01T22:11:05.016Z,17.73
2022-09-01T22:13:38.039Z,17.68
2022-09-01T22:16:05.108Z,17.72
2022-09-01T22:18:39.040Z,17.74
2022-09-01T22:21:15.045Z,17.76
2022-09-01T22:23:42.755Z,17.78
2022-09-01T22:26:17.042Z,17.77
2022-09-01T22:28:50.176Z,17.78
2022-09-01T22:31:32.052Z,17.70
2022-09-01T22:34:07.035Z,17.73
2022-09-01T22:36:39.532Z,17.70
2022-09-01T22:39:15.041Z,17.71
2022-09-01T22:41:42.228Z,17.72
2022-09-01T22:44:17.010Z,17.71
2022-09-01T22:46:44.166Z,17.67
2022-09-01T22:49:11.842Z,17.69
2022-09-01T22:51:48.024Z,17.64
2022-09-01T22:54:14.871Z,17.66
2022-09-01T22:56:42.362Z,17.70
2022-09-01T22:59:20.073Z,17.69
2022-09-01T23:01:54.044Z,17.65
2022-09-01T23:04:28.039Z,17.59
2022-09-01T23:07:01.005Z,17.58
2022-09-01T23:09:34.004Z,17.55
2022-09-01T23:12:01.187Z,17.52
2022-09-01T23:14:35.008Z,17.47
2022-09-01T23:17:02.056Z,17.47
2022-09-01T23:19:35.011Z,17.44
2022-09-01T23:22:03.228Z,17.46
2022-09-01T23:24:36.035Z,17.50
2022-09-01T23:27:10.234Z,17.41
2022-09-01T23:29:44.102Z,17.38
2022-09-01T23:32:24.017Z,17.35
2022-09-01T23:34:58.002Z,17.37
2022-09-01T23:37:31.041Z,17.35
2022-09-01T23:40:04.035Z,17.37
2022-09-01T23:42:38.015Z,17.37
2022-09-01T23:45:05.964Z,17.24
2022-09-01T23:47:39.043Z,17.22
2022-09-01T23:50:08.595Z,17.24
2022-09-01T23:52:35.424Z,17.22
2022-09-01T23:55:09.006Z,17.22
2022-09-01T23:57:42.022Z,17.22
